Time;durP1;ratioP1;P1;durP2;ratioP2;P2;SDS_P1;SDS_P2;PMS_P1;PMS_P2;Temp;Humidity;BMP_temperature;BMP_pressure;BME280_temperature;BME280_humidity;BME280_pressure;Samples;Min_cycle;Max_cycle;Signal;HPM_P1;HPM_P2
2023/03/23 00:00:54;;;;;;;36.10;18.20;;;;;;;9.18;71.46;98104.38;104995;1259;98464;-79
2023/03/23 00:03:21;;;;;;;32.20;17.60;;;;;;;9.08;71.83;98103.52;104994;1268;98595;-82
2023/03/23 00:05:51;;;;;;;34.20;19.00;;;;;;;8.97;71.87;98103.61;105246;1253;97932;-78
2023/03/23 00:08:23;;;;;;;38.60;18.90;;;;;;;8.85;71.98;98105.02;105116;1256;97880;-80
2023/03/23 00:10:56;;;;;;;36.20;18.40;;;;;;;8.76;72.53;98100.45;105136;1256;111800;-79
2023/03/23 00:13:25;;;;;;;38.40;18.60;;;;;;;8.66;72.72;98101.05;105270;1256;98323;-79
2023/03/23 00:15:52;;;;;;;32.80;17.90;;;;;;;8.57;72.85;98101.39;105082;1253;107479;-79
2023/03/23 00:18:21;;;;;;;42.80;21.80;;;;;;;8.48;72.95;98102.81;105101;1256;97914;-78
2023/03/23 00:20:57;;;;;;;34.90;18.50;;;;;;;8.41;72.96;98103.00;104850;1257;98120;-78
2023/03/23 00:23:25;;;;;;;31.70;16.60;;;;;;;8.28;72.80;98110.46;105048;1259;111098;-80
2023/03/23 00:25:58;;;;;;;31.00;17.60;;;;;;;8.18;73.14;98114.19;105103;1275;98573;-77
2023/03/23 00:28:26;;;;;;;32.10;17.60;;;;;;;8.09;73.53;98114.27;105255;1256;108722;-79
2023/03/23 00:31:06;;;;;;;32.00;17.20;;;;;;;8.03;73.87;98117.72;105011;1259;97995;-80
2023/03/23 00:33:37;;;;;;;45.80;22.80;;;;;;;8.00;74.24;98116.71;105176;1266;97810;-79
2023/03/23 00:36:05;;;;;;;82.00;39.70;;;;;;;7.96;74.09;98116.81;105255;1267;112329;-74
2023/03/23 00:38:31;;;;;;;71.50;35.80;;;;;;;7.92;74.66;98119.14;105299;1256;99145;-78
2023/03/23 00:40:57;;;;;;;59.90;33.00;;;;;;;7.91;75.03;98115.78;105111;1256;97964;-79
2023/03/23 00:43:24;;;;;;;54.60;31.20;;;;;;;7.92;75.22;98115.11;105226;1254;97913;-79
2023/03/23 00:45:54;;;;;;;54.40;29.30;;;;;;;7.92;75.20;98111.94;105181;1256;112109;-79
2023/03/23 00:48:20;;;;;;;62.30;31.30;;;;;;;7.91;75.31;98108.58;104875;1261;98726;-78
2023/03/23 00:50:47;;;;;;;59.20;30.10;;;;;;;7.85;75.45;98107.80;105103;1267;99700;-79
2023/03/23 00:53:13;;;;;;;54.90;27.10;;;;;;;7.77;75.82;98105.62;104975;1256;97944;-79
2023/03/23 00:55:43;;;;;;;72.60;43.80;;;;;;;7.76;76.60;98100.58;105239;1253;97913;-78
2023/03/23 00:58:10;;;;;;;51.10;27.40;;;;;;;7.79;76.93;98097.78;105202;1256;97990;-78
2023/03/23 01:00:36;;;;;;;43.00;22.30;;;;;;;7.81;76.73;98095.98;105219;1256;97924;-78
2023/03/23 01:03:03;;;;;;;57.70;28.10;;;;;;;7.82;76.63;98090.96;105058;1256;97954;-80
2023/03/23 01:05:31;;;;;;;29.20;16.00;;;;;;;7.84;77.14;98089.27;105298;1256;97913;-78
2023/03/23 01:07:58;;;;;;;25.30;14.30;;;;;;;7.92;77.75;98082.91;105170;1256;109941;-80
2023/03/23 01:10:26;;;;;;;20.90;11.40;;;;;;;8.03;77.55;98080.19;105244;1256;97937;-80
2023/03/23 01:12:52;;;;;;;17.00;10.30;;;;;;;8.17;77.59;98075.30;105248;1256;98002;-79
2023/03/23 01:15:19;;;;;;;16.00;9.40;;;;;;;8.32;77.64;98071.74;105127;1266;98046;-79
2023/03/23 01:17:45;;;;;;;19.30;9.80;;;;;;;8.47;77.85;98069.36;105029;1253;97918;-78
2023/03/23 01:20:14;;;;;;;19.20;11.50;;;;;;;8.59;77.28;98071.68;105246;1256;97975;-79
2023/03/23 01:22:41;;;;;;;21.60;11.20;;;;;;;8.68;77.56;98073.30;105146;1256;107059;-79
2023/03/23 01:25:09;;;;;;;21.10;10.90;;;;;;;8.76;77.03;98068.77;105030;1267;97962;-79
2023/03/23 01:27:35;;;;;;;13.70;8.60;;;;;;;8.82;76.85;98072.48;105141;1256;98354;-79
2023/03/23 01:30:01;;;;;;;15.70;9.60;;;;;;;8.88;76.82;98072.95;105106;1257;97927;-79
2023/03/23 01:32:28;;;;;;;16.20;9.60;;;;;;;8.95;76.66;98072.45;105402;1261;97994;-79
2023/03/23 01:34:54;;;;;;;18.50;9.50;;;;;;;9.01;76.19;98074.24;105280;1253;97861;-78
2023/03/23 01:37:19;;;;;;;11.70;7.00;;;;;;;9.08;76.40;98067.08;105235;1256;98270;-80
2023/03/23 01:39:46;;;;;;;15.10;9.50;;;;;;;9.19;76.12;98068.09;104975;1272;97970;-79
2023/03/23 01:42:12;;;;;;;21.00;13.60;;;;;;;9.27;75.79;98066.05;105212;1254;98421;-79
2023/03/23 01:44:37;;;;;;;13.30;7.90;;;;;;;9.35;75.63;98069.05;104978;1256;98041;-80
2023/03/23 01:47:03;;;;;;;14.40;8.50;;;;;;;9.42;75.29;98065.64;105041;1254;98012;-80
2023/03/23 01:49:32;;;;;;;16.20;8.40;;;;;;;9.47;75.07;98070.99;105108;1266;97944;-80
2023/03/23 01:52:16;;;;;;;12.10;7.50;;;;;;;9.48;74.91;98068.58;105278;1256;107612;-84
2023/03/23 01:54:45;;;;;;;13.20;8.20;;;;;;;9.50;74.89;98065.05;105093;1256;97922;-79
2023/03/23 01:57:15;;;;;;;15.30;8.50;;;;;;;9.51;74.92;98059.55;105256;1256;97823;-79
2023/03/23 01:59:44;;;;;;;13.20;8.40;;;;;;;9.51;74.78;98057.77;105183;1256;111275;-79
2023/03/23 02:02:12;;;;;;;14.00;10.00;;;;;;;9.52;74.74;98049.53;105139;1256;99475;-79
2023/03/23 02:04:39;;;;;;;15.20;9.30;;;;;;;9.56;74.63;98046.25;104967;1260;108216;-78
2023/03/23 02:07:05;;;;;;;12.60;8.50;;;;;;;9.60;74.49;98042.22;105067;1256;98042;-79
2023/03/23 02:09:31;;;;;;;13.90;8.90;;;;;;;9.66;74.21;98041.38;105189;1256;97998;-78
2023/03/23 02:11:57;;;;;;;13.50;8.10;;;;;;;9.73;74.06;98041.57;105344;1254;97840;-79
2023/03/23 02:14:26;;;;;;;10.90;7.40;;;;;;;9.79;73.98;98046.02;105224;1267;107436;-79
2023/03/23 02:17:02;;;;;;;13.90;7.50;;;;;;;9.84;73.75;98044.01;105077;1262;98012;-79
2023/03/23 02:19:46;;;;;;;10.60;6.80;;;;;;;9.87;73.63;98045.09;105159;1265;97899;-78
2023/03/23 02:22:24;;;;;;;11.80;7.00;;;;;;;9.88;73.58;98040.61;105009;1256;111083;-79
2023/03/23 02:25:29;;;;;;;11.10;7.40;;;;;;;9.88;73.54;98040.45;105145;1267;98260;-78
2023/03/23 02:28:11;;;;;;;10.50;7.00;;;;;;;9.89;73.50;98042.58;104833;1271;106573;-78
2023/03/23 02:30:55;;;;;;;13.30;7.90;;;;;;;9.87;73.38;98044.83;105168;1256;97998;-78
2023/03/23 02:33:36;;;;;;;12.30;8.10;;;;;;;9.84;73.39;98038.35;105242;1256;98082;-80
2023/03/23 02:36:10;;;;;;;17.90;9.20;;;;;;;9.82;73.29;98034.33;105117;1255;111365;-78
2023/03/23 02:38:53;;;;;;;14.20;8.20;;;;;;;9.79;73.26;98028.11;105251;1264;97921;-80
2023/03/23 02:41:24;;;;;;;14.40;8.90;;;;;;;9.79;73.37;98028.77;105224;1256;106429;-80
2023/03/23 02:43:51;;;;;;;12.40;8.40;;;;;;;9.79;73.19;98028.11;104833;1257;97990;-80
2023/03/23 02:46:20;;;;;;;12.80;8.00;;;;;;;9.81;73.32;98026.05;104985;1262;98310;-83
2023/03/23 02:48:48;;;;;;;20.50;10.90;;;;;;;9.81;73.37;98027.18;105116;1256;111024;-81
2023/03/23 02:51:16;;;;;;;15.40;9.60;;;;;;;9.82;73.37;98026.50;104985;1262;98716;-82
2023/03/23 02:53:43;;;;;;;21.90;12.70;;;;;;;9.81;73.31;98028.02;105130;1258;108453;-79
2023/03/23 02:56:11;;;;;;;19.00;10.20;;;;;;;9.80;73.32;98027.83;105278;1266;97936;-79
2023/03/23 02:58:37;;;;;;;21.30;9.80;;;;;;;9.78;73.26;98031.65;105256;1256;97891;-79
2023/03/23 03:01:24;;;;;;;20.20;11.30;;;;;;;9.75;73.40;98038.16;105060;1267;97989;-77
2023/03/23 03:03:51;;;;;;;19.90;10.00;;;;;;;9.71;73.47;98032.89;104982;1259;99310;-76
2023/03/23 03:07:06;;;;;;;16.00;10.80;;;;;;;9.66;73.57;98030.28;105298;1256;98350;-79
2023/03/23 03:10:08;;;;;;;14.30;9.40;;;;;;;9.61;73.60;98032.17;104351;1269;99128;-79
2023/03/23 03:12:39;;;;;;;18.30;10.60;;;;;;;9.57;73.60;98034.50;104787;1258;98376;-78
2023/03/23 03:15:23;;;;;;;19.40;11.40;;;;;;;9.53;73.66;98035.50;104647;1266;109907;-78
2023/03/23 03:18:11;;;;;;;24.80;13.30;;;;;;;9.49;73.81;98035.95;104709;1258;98160;-79
2023/03/23 03:20:45;;;;;;;16.50;10.00;;;;;;;9.47;73.82;98033.80;104720;1264;108562;-78
2023/03/23 03:23:13;;;;;;;16.50;9.90;;;;;;;9.47;74.09;98024.34;104895;1261;97979;-80
2023/03/23 03:25:47;;;;;;;14.90;9.80;;;;;;;9.50;74.01;98021.86;104662;1270;98428;-79
2023/03/23 03:28:16;;;;;;;18.10;9.80;;;;;;;9.55;73.86;98021.76;104883;1263;111006;-79
2023/03/23 03:30:45;;;;;;;16.20;10.70;;;;;;;9.61;73.71;98023.89;104842;1262;98067;-76
2023/03/23 03:33:12;;;;;;;22.50;12.20;;;;;;;9.66;73.54;98020.81;104839;1271;107532;-79
2023/03/23 03:35:41;;;;;;;20.50;12.90;;;;;;;9.70;73.59;98022.98;104551;1265;98121;-78
2023/03/23 03:38:09;;;;;;;17.40;10.50;;;;;;;9.72;73.34;98021.30;104819;1270;98077;-78
2023/03/23 03:40:35;;;;;;;15.70;8.40;;;;;;;9.72;73.39;98024.26;104859;1264;111071;-78
2023/03/23 03:43:02;;;;;;;13.90;7.50;;;;;;;9.72;73.32;98026.64;104611;1271;98005;-79
2023/03/23 03:45:27;;;;;;;12.80;8.40;;;;;;;9.71;73.31;98026.51;104495;1264;99231;-78
2023/03/23 03:47:53;;;;;;;13.40;7.80;;;;;;;9.70;73.45;98034.05;105163;1254;99264;-79
2023/03/23 03:50:19;;;;;;;18.00;9.00;;;;;;;9.69;73.39;98036.40;105074;1258;99307;-79
2023/03/23 03:52:45;;;;;;;14.60;8.90;;;;;;;9.65;73.40;98033.69;105021;1269;97938;-79
2023/03/23 03:55:11;;;;;;;15.70;9.60;;;;;;;9.63;73.37;98031.79;105117;1266;97867;-79
2023/03/23 03:57:37;;;;;;;15.70;9.10;;;;;;;9.60;73.41;98025.11;105291;1260;98225;-86
2023/03/23 04:00:16;;;;;;;17.10;9.20;;;;;;;9.59;73.56;98024.66;105060;1264;97901;-79
2023/03/23 04:02:43;;;;;;;14.40;7.70;;;;;;;9.60;73.51;98025.72;105109;1266;97917;-80
2023/03/23 04:05:10;;;;;;;15.50;8.70;;;;;;;9.64;73.35;98026.52;105150;1266;108717;-80
2023/03/23 04:07:38;;;;;;;11.10;6.90;;;;;;;9.70;73.17;98025.58;105209;1257;97905;-81
2023/03/23 04:10:06;;;;;;;9.80;5.40;;;;;;;9.75;72.94;98022.23;105158;1257;98032;-81
2023/03/23 04:12:32;;;;;;;9.50;6.30;;;;;;;9.82;72.52;98018.30;105094;1260;110996;-78
2023/03/23 04:14:58;;;;;;;12.50;7.80;;;;;;;9.88;72.37;98015.27;105177;1266;97962;-79
2023/03/23 04:17:27;;;;;;;13.30;8.10;;;;;;;9.93;72.15;98012.56;105358;1257;97919;-75
2023/03/23 04:19:57;;;;;;;11.60;6.70;;;;;;;9.96;71.87;98003.70;105240;1256;97899;-80
2023/03/23 04:22:30;;;;;;;13.10;8.80;;;;;;;9.98;71.88;98006.21;105264;1264;112702;-79
2023/03/23 04:24:58;;;;;;;10.40;6.40;;;;;;;9.97;71.93;97998.27;105306;1256;98030;-79
2023/03/23 04:27:25;;;;;;;14.10;7.80;;;;;;;9.96;71.87;97995.88;105087;1264;107514;-78
2023/03/23 04:29:51;;;;;;;12.30;8.20;;;;;;;9.97;71.79;97997.81;105187;1266;97925;-80
2023/03/23 04:32:19;;;;;;;13.10;7.20;;;;;;;9.98;71.83;98000.80;105048;1266;97897;-79
2023/03/23 04:34:45;;;;;;;13.20;8.10;;;;;;;9.99;71.70;98001.34;105152;1257;97909;-79
2023/03/23 04:37:13;;;;;;;10.70;7.20;;;;;;;10.01;71.79;97998.05;105088;1266;97929;-80
2023/03/23 04:39:39;;;;;;;15.40;9.80;;;;;;;10.03;71.70;97994.21;105233;1259;97928;-79
2023/03/23 04:42:05;;;;;;;21.80;11.40;;;;;;;10.02;71.73;97999.21;105114;1266;97988;-79
2023/03/23 04:44:32;;;;;;;14.00;7.90;;;;;;;10.00;71.74;98002.16;105283;1255;98403;-79
2023/03/23 04:47:01;;;;;;;17.60;11.10;;;;;;;9.97;71.70;98009.39;105190;1257;98419;-79
2023/03/23 04:49:26;;;;;;;16.10;9.60;;;;;;;9.94;71.62;98003.38;105055;1256;98408;-80
2023/03/23 04:51:52;;;;;;;20.70;9.60;;;;;;;9.91;71.74;98007.02;105011;1257;281244;-79
2023/03/23 04:54:18;;;;;;;16.60;7.30;;;;;;;9.87;71.84;98004.11;104996;1267;97945;-79
2023/03/23 04:56:44;;;;;;;13.10;7.20;;;;;;;9.82;72.03;98007.50;104960;1272;107049;-77
2023/03/23 04:59:10;;;;;;;16.60;6.40;;;;;;;9.81;72.02;98013.73;105251;1266;97927;-78
2023/03/23 05:01:38;;;;;;;13.60;8.10;;;;;;;9.79;72.06;98013.27;105164;1267;97967;-79
2023/03/23 05:04:04;;;;;;;12.70;7.90;;;;;;;9.78;72.06;98014.55;105160;1266;97931;-80
2023/03/23 05:06:30;;;;;;;12.60;8.20;;;;;;;9.77;72.15;98012.47;105051;1257;98401;-79
2023/03/23 05:08:56;;;;;;;14.80;8.30;;;;;;;9.78;72.20;98004.30;105155;1257;97905;-79
2023/03/23 05:11:22;;;;;;;17.70;8.70;;;;;;;9.78;72.14;98001.39;105315;1257;98023;-80
2023/03/23 05:13:48;;;;;;;13.80;7.80;;;;;;;9.79;72.14;97998.79;105244;1257;97910;-78
2023/03/23 05:16:14;;;;;;;13.60;7.40;;;;;;;9.80;72.15;97998.27;105230;1257;98033;-79
2023/03/23 05:18:40;;;;;;;9.90;6.20;;;;;;;9.79;72.10;98004.65;105233;1257;98617;-79
2023/03/23 05:21:05;;;;;;;11.30;6.70;;;;;;;9.78;72.21;98008.13;105043;1264;111939;-80
2023/03/23 05:23:33;;;;;;;14.80;7.70;;;;;;;9.78;72.16;98015.00;104975;1258;98294;-78
2023/03/23 05:26:02;;;;;;;15.50;8.90;;;;;;;9.78;72.38;98019.38;104976;1257;97905;-80
2023/03/23 05:28:30;;;;;;;21.60;11.90;;;;;;;9.77;72.31;98013.81;105093;1258;97882;-79
2023/03/23 05:30:57;;;;;;;19.80;11.10;;;;;;;9.81;72.31;98013.88;105207;1266;98285;-81
2023/03/23 05:33:22;;;;;;;16.80;9.60;;;;;;;9.87;72.19;98005.04;105084;1267;97880;-81
2023/03/23 05:35:48;;;;;;;11.30;6.90;;;;;;;9.94;72.02;98001.80;105238;1262;97892;-79
2023/03/23 05:38:16;;;;;;;13.40;7.40;;;;;;;10.00;71.85;98007.11;105277;1255;97934;-80
2023/03/23 05:40:42;;;;;;;13.00;6.60;;;;;;;10.07;71.59;98011.21;104986;1260;97968;-79
2023/03/23 05:43:08;;;;;;;15.30;7.80;;;;;;;10.13;71.37;98019.29;105261;1257;97989;-78
2023/03/23 05:45:34;;;;;;;14.30;7.60;;;;;;;10.19;71.41;98021.86;105251;1257;97854;-78
2023/03/23 05:48:01;;;;;;;14.10;7.70;;;;;;;10.24;70.99;98028.65;105238;1264;98065;-80
2023/03/23 05:50:27;;;;;;;18.70;10.50;;;;;;;10.30;70.98;98026.63;105172;1267;98072;-80
2023/03/23 05:52:55;;;;;;;21.70;10.00;;;;;;;10.36;70.63;98028.84;104915;1258;98027;-78
2023/03/23 05:55:20;;;;;;;17.10;8.50;;;;;;;10.44;70.81;98032.19;105267;1257;98383;-79
2023/03/23 05:57:46;;;;;;;24.00;12.60;;;;;;;10.48;70.58;98033.95;105138;1267;97922;-80
2023/03/23 06:00:19;;;;;;;20.60;9.20;;;;;;;10.54;70.48;98034.98;104814;1259;98178;-79
2023/03/23 06:02:47;;;;;;;18.60;9.40;;;;;;;10.58;70.23;98033.52;104992;1269;110517;-78
2023/03/23 06:05:15;;;;;;;14.20;6.60;;;;;;;10.62;70.17;98035.01;104984;1257;97912;-79
2023/03/23 06:07:42;;;;;;;10.00;6.20;;;;;;;10.65;69.78;98033.55;105199;1266;107602;-80
2023/03/23 06:10:09;;;;;;;15.00;6.70;;;;;;;10.67;70.06;98034.27;105200;1257;97913;-78
2023/03/23 06:12:36;;;;;;;16.40;8.30;;;;;;;10.71;69.73;98033.30;105328;1254;97945;-78
2023/03/23 06:15:03;;;;;;;16.30;9.80;;;;;;;10.73;69.67;98027.29;105114;1257;109774;-81
2023/03/23 06:17:29;;;;;;;12.90;7.70;;;;;;;10.77;69.56;98025.34;105212;1258;97987;-77
2023/03/23 06:19:55;;;;;;;11.30;6.30;;;;;;;10.83;69.03;98019.69;105230;1266;97976;-80
2023/03/23 06:22:21;;;;;;;10.40;6.00;;;;;;;10.90;68.85;98014.46;105048;1267;98414;-80
2023/03/23 06:24:47;;;;;;;8.90;5.40;;;;;;;10.97;68.23;98009.16;105160;1267;97926;-79
2023/03/23 06:27:13;;;;;;;8.60;5.20;;;;;;;11.02;68.02;98005.84;105064;1267;97984;-78
2023/03/23 06:29:39;;;;;;;7.60;4.40;;;;;;;11.06;67.83;98006.55;104806;1259;97982;-78
2023/03/23 06:32:05;;;;;;;9.10;5.10;;;;;;;11.09;67.61;98004.14;105077;1252;97961;-77
2023/03/23 06:34:34;;;;;;;11.00;6.50;;;;;;;11.13;67.75;98008.46;105185;1254;97928;-78
2023/03/23 06:37:01;;;;;;;16.10;7.60;;;;;;;11.15;67.55;98008.78;105155;1264;108519;-78
2023/03/23 06:39:28;;;;;;;10.60;5.40;;;;;;;11.18;67.28;98011.63;105237;1256;97941;-77
2023/03/23 06:41:53;;;;;;;11.20;5.90;;;;;;;11.21;67.28;98009.20;105171;1254;98119;-79
2023/03/23 06:44:19;;;;;;;14.20;6.80;;;;;;;11.22;67.27;98007.76;105136;1267;97931;-78
2023/03/23 06:46:45;;;;;;;9.70;5.80;;;;;;;11.23;66.83;98012.17;105168;1257;97901;-79
2023/03/23 06:49:11;;;;;;;8.50;5.60;;;;;;;11.24;66.78;98005.40;105167;1262;97922;-77
2023/03/23 06:51:37;;;;;;;10.00;5.60;;;;;;;11.27;66.75;98003.34;104927;1257;97975;-78
2023/03/23 06:54:04;;;;;;;9.80;6.10;;;;;;;11.33;66.91;98001.80;105132;1267;97992;-79
2023/03/23 06:56:31;;;;;;;10.10;5.30;;;;;;;11.40;66.80;98007.41;104895;1270;108381;-81
2023/03/23 06:58:56;;;;;;;7.60;5.20;;;;;;;11.47;66.31;98009.54;105309;1254;97925;-78
2023/03/23 07:01:22;;;;;;;10.10;5.70;;;;;;;11.54;66.04;98010.17;105337;1258;97900;-78
2023/03/23 07:03:48;;;;;;;11.00;5.90;;;;;;;11.63;66.07;98010.82;105071;1260;98024;-77
2023/03/23 07:06:15;;;;;;;13.80;7.10;;;;;;;11.74;66.12;98010.33;104965;1267;98378;-78
2023/03/23 07:08:42;;;;;;;11.90;6.70;;;;;;;11.84;65.64;98010.98;105150;1258;97934;-77
2023/03/23 07:11:07;;;;;;;9.90;5.60;;;;;;;11.95;65.47;98013.02;105020;1257;97971;-74
2023/03/23 07:13:33;;;;;;;9.30;6.40;;;;;;;12.04;64.75;98016.64;105269;1256;97999;-77
2023/03/23 07:16:00;;;;;;;8.90;5.10;;;;;;;12.12;64.44;98021.77;105106;1254;98022;-77
2023/03/23 07:18:27;;;;;;;14.10;6.90;;;;;;;12.15;64.06;98022.70;104993;1258;97954;-76
2023/03/23 07:20:53;;;;;;;8.50;5.70;;;;;;;12.20;64.15;98023.73;105046;1257;98504;-76
2023/03/23 07:23:20;;;;;;;47.80;22.20;;;;;;;12.23;63.74;98027.44;105283;1256;98431;-77
2023/03/23 07:25:48;;;;;;;25.60;9.70;;;;;;;12.27;63.66;98034.23;104836;1260;106980;-73
2023/03/23 07:28:15;;;;;;;22.00;8.60;;;;;;;12.33;63.74;98036.05;105160;1266;97905;-75
2023/03/23 07:30:41;;;;;;;11.10;5.90;;;;;;;12.40;64.22;98031.84;105059;1254;97927;-76
2023/03/23 07:33:08;;;;;;;13.00;7.50;;;;;;;12.48;64.15;98032.79;105022;1264;99257;-76
2023/03/23 07:35:35;;;;;;;11.90;6.00;;;;;;;12.54;63.87;98030.73;105160;1256;98164;-77
2023/03/23 07:38:02;;;;;;;11.40;6.70;;;;;;;12.62;64.10;98033.24;105189;1257;97929;-79
2023/03/23 07:40:28;;;;;;;12.80;6.50;;;;;;;12.72;63.62;98031.44;105118;1258;97990;-81
2023/03/23 07:42:57;;;;;;;14.40;8.00;;;;;;;12.84;63.42;98031.02;105138;1254;112010;-79
2023/03/23 07:45:23;;;;;;;12.00;6.60;;;;;;;12.96;62.96;98033.58;105309;1254;98071;-79
2023/03/23 07:47:49;;;;;;;11.00;5.90;;;;;;;13.12;63.15;98039.96;105045;1264;97899;-85
2023/03/23 07:50:16;;;;;;;15.20;7.40;;;;;;;13.35;63.25;98039.08;105000;1267;97899;-82
2023/03/23 07:52:42;;;;;;;12.40;6.30;;;;;;;13.61;63.08;98039.53;105127;1254;98419;-81
2023/03/23 07:55:17;;;;;;;8.10;4.80;;;;;;;13.79;61.54;98044.38;105137;1267;99015;-82
2023/03/23 07:57:44;;;;;;;13.10;7.10;;;;;;;13.84;60.84;98045.23;105302;1255;107393;-82
2023/03/23 08:00:19;;;;;;;8.80;5.00;;;;;;;13.89;60.84;98045.98;105258;1258;97941;-83
2023/03/23 08:02:51;;;;;;;14.10;7.30;;;;;;;13.98;59.78;98040.39;105261;1255;98308;-83
2023/03/23 08:05:20;;;;;;;15.70;6.60;;;;;;;14.11;59.73;98043.19;105196;1253;110994;-81
2023/03/23 08:07:47;;;;;;;9.10;5.20;;;;;;;14.22;59.37;98045.81;105187;1256;97982;-82
2023/03/23 08:10:14;;;;;;;10.10;5.70;;;;;;;14.38;59.21;98044.73;105296;1258;97922;-84
2023/03/23 08:12:47;;;;;;;11.10;6.00;;;;;;;14.51;59.74;98043.11;105207;1266;97986;-80
2023/03/23 08:15:14;;;;;;;9.80;5.70;;;;;;;14.58;59.05;98048.00;105371;1256;97948;-87
2023/03/23 08:17:41;;;;;;;14.10;7.00;;;;;;;14.63;59.48;98048.35;105145;1261;98401;-70
2023/03/23 08:20:13;;;;;;;16.30;8.30;;;;;;;14.84;60.51;98051.53;105310;1267;97899;-83
2023/03/23 08:22:52;;;;;;;8.90;6.30;;;;;;;15.23;59.55;98049.92;105068;1260;108014;-83
2023/03/23 08:25:19;;;;;;;10.60;6.00;;;;;;;15.50;57.32;98049.55;105253;1258;97906;-83
2023/03/23 08:27:45;;;;;;;8.40;6.30;;;;;;;15.57;56.99;98051.89;105226;1253;97986;-82
2023/03/23 08:30:15;;;;;;;13.60;6.90;;;;;;;15.61;56.48;98049.77;105184;1255;97977;-79
2023/03/23 08:32:42;;;;;;;12.40;7.10;;;;;;;15.76;56.80;98047.23;105112;1253;99442;-84
2023/03/23 08:35:10;;;;;;;13.40;7.10;;;;;;;16.09;57.14;98038.81;105213;1254;97918;-84
2023/03/23 08:37:37;;;;;;;13.20;6.40;;;;;;;16.38;54.94;98038.94;105248;1257;97902;-78
2023/03/23 08:40:11;;;;;;;10.50;6.60;;;;;;;16.38;53.90;98036.27;105230;1254;98004;-85
2023/03/23 08:42:42;;;;;;;8.50;5.20;;;;;;;16.60;53.78;98028.95;105014;1261;111055;-77
2023/03/23 08:45:14;;;;;;;9.40;5.90;;;;;;;16.93;51.94;98032.85;105140;1257;97914;-78
2023/03/23 08:47:51;;;;;;;10.30;6.20;;;;;;;17.22;51.53;98025.07;105123;1267;108374;-85
2023/03/23 08:50:30;;;;;;;13.10;5.20;;;;;;;17.56;52.05;98018.31;105071;1257;97988;-84
2023/03/23 08:53:00;;;;;;;10.10;5.80;;;;;;;17.92;50.52;98019.52;105214;1256;98003;-82
2023/03/23 08:55:29;;;;;;;12.40;7.20;;;;;;;18.21;49.62;98017.55;105321;1267;110500;-82
2023/03/23 08:57:55;;;;;;;18.00;8.60;;;;;;;18.49;49.71;98016.61;105268;1272;98026;-79
2023/03/23 09:00:24;;;;;;;10.90;7.70;;;;;;;18.85;50.54;98020.94;105120;1255;98130;-79
2023/03/23 09:02:52;;;;;;;12.00;7.50;;;;;;;19.29;49.01;98019.17;104931;1260;98072;-81
2023/03/23 09:05:21;;;;;;;13.20;6.80;;;;;;;19.60;46.78;98025.13;104729;1263;98247;-81
2023/03/23 09:07:50;;;;;;;12.80;7.30;;;;;;;19.55;47.20;98025.25;104725;1257;109768;-81
2023/03/23 09:10:17;;;;;;;11.70;6.80;;;;;;;19.68;46.62;98018.95;104974;1260;99105;-81
2023/03/23 09:12:45;;;;;;;10.10;5.60;;;;;;;19.97;44.84;98022.07;104698;1261;98097;-80
2023/03/23 09:15:14;;;;;;;10.20;5.60;;;;;;;20.14;44.46;98019.36;104521;1276;98084;-83
2023/03/23 09:17:44;;;;;;;11.30;5.20;;;;;;;20.32;43.80;98015.23;104991;1260;98316;-82
2023/03/23 09:20:13;;;;;;;8.10;4.60;;;;;;;20.52;43.67;98017.25;104898;1260;111842;-82
2023/03/23 09:22:47;;;;;;;8.80;4.50;;;;;;;20.48;42.23;98020.42;104510;1256;98008;-79
2023/03/23 09:25:16;;;;;;;6.20;3.90;;;;;;;20.23;41.77;98020.96;104825;1261;106445;-81
2023/03/23 09:27:43;;;;;;;10.90;3.90;;;;;;;19.91;42.09;98021.81;104651;1263;98119;-82
2023/03/23 09:30:14;;;;;;;8.60;4.50;;;;;;;19.59;42.44;98025.82;105024;1257;98210;-82
2023/03/23 09:32:43;;;;;;;6.70;4.10;;;;;;;19.37;43.16;98026.77;104889;1257;111338;-84
2023/03/23 09:35:11;;;;;;;6.40;3.40;;;;;;;19.51;44.43;98025.55;104925;1262;98085;-86
2023/03/23 09:37:38;;;;;;;6.40;3.90;;;;;;;19.97;43.73;98031.92;104832;1261;107536;-75
2023/03/23 09:40:10;;;;;;;7.00;4.30;;;;;;;20.47;42.54;98033.38;105050;1274;98151;-79
2023/03/23 09:42:50;;;;;;;4.90;3.40;;;;;;;21.00;42.40;98034.98;105342;1254;97918;-75
2023/03/23 09:45:25;;;;;;;7.50;3.40;;;;;;;21.45;40.28;98036.33;104832;1260;111556;-74
2023/03/23 09:48:12;;;;;;;7.00;3.00;;;;;;;21.72;39.38;98026.52;105034;1260;98724;-65
2023/03/23 09:50:42;;;;;;;5.90;3.10;;;;;;;21.98;39.24;98025.70;105020;1267;107430;-78
2023/03/23 09:53:21;;;;;;;4.80;2.60;;;;;;;22.33;36.97;98021.41;105286;1257;99260;-66
2023/03/23 09:55:48;;;;;;;5.80;3.40;;;;;;;22.41;35.64;98019.02;105000;1259;98087;-74
2023/03/23 09:58:27;;;;;;;5.00;2.80;;;;;;;22.57;35.99;98013.35;105097;1257;112113;-71
2023/03/23 10:01:20;;;;;;;5.90;3.20;;;;;;;22.59;36.16;98022.60;105219;1257;99377;-77
2023/03/23 10:03:47;;;;;;;5.30;3.40;;;;;;;22.35;35.74;98018.05;104859;1263;108576;-79
2023/03/23 10:06:17;;;;;;;7.00;2.90;;;;;;;22.18;35.96;98006.05;104813;1259;98198;-79
2023/03/23 10:08:49;;;;;;;6.50;3.30;;;;;;;22.24;35.70;98008.14;104661;1265;97985;-80
2023/03/23 10:11:38;;;;;;;8.60;3.90;;;;;;;22.36;35.43;98008.08;104624;1262;112134;-77
2023/03/23 10:14:35;;;;;;;8.40;3.70;;;;;;;22.39;34.30;98007.10;104405;1267;99323;-76
2023/03/23 10:17:17;;;;;;;7.00;3.50;;;;;;;22.19;34.65;98013.45;104180;1269;108162;-82
2023/03/23 10:20:07;;;;;;;5.70;3.70;;;;;;;22.11;34.98;98013.82;104194;1270;98117;-79
2023/03/23 10:22:41;;;;;;;7.30;3.70;;;;;;;22.10;34.83;98017.33;104143;1270;98106;-76
2023/03/23 10:25:14;;;;;;;6.70;3.80;;;;;;;22.08;35.31;98013.37;104177;1279;111964;-73
2023/03/23 10:28:10;;;;;;;5.30;3.60;;;;;;;22.40;36.18;98008.84;104113;1270;98594;-78
2023/03/23 10:30:43;;;;;;;9.10;3.80;;;;;;;22.47;34.38;98009.98;104074;1271;108720;-78
2023/03/23 10:33:20;;;;;;;5.50;3.50;;;;;;;22.05;35.07;98003.42;104182;1271;98088;-79
2023/03/23 10:35:54;;;;;;;7.10;3.30;;;;;;;21.59;35.86;97999.95;104139;1269;97971;-80
2023/03/23 10:38:29;;;;;;;7.70;3.50;;;;;;;21.16;36.25;98001.37;104178;1282;112338;-78
2023/03/23 10:41:11;;;;;;;6.50;3.50;;;;;;;20.71;37.21;98006.42;104291;1270;100391;-78
2023/03/23 10:43:39;;;;;;;6.00;3.70;;;;;;;20.37;37.93;98011.19;104499;1267;108443;-76
2023/03/23 10:46:36;;;;;;;5.30;3.70;;;;;;;20.09;38.85;98010.59;104368;1264;98083;-79
2023/03/23 10:49:08;;;;;;;5.90;3.50;;;;;;;19.87;39.24;98006.23;104394;1267;97934;-79
2023/03/23 10:51:37;;;;;;;8.50;4.00;;;;;;;19.53;38.74;97998.33;104400;1267;110546;-81
2023/03/23 10:54:10;;;;;;;9.30;3.90;;;;;;;19.25;39.42;98000.82;104640;1253;98155;-81
2023/03/23 10:56:46;;;;;;;7.30;3.70;;;;;;;19.04;40.12;98003.06;104957;1259;107516;-81
2023/03/23 10:59:30;;;;;;;5.10;3.00;;;;;;;18.80;39.72;97999.16;105124;1256;97926;-81
2023/03/23 11:02:02;;;;;;;6.50;3.20;;;;;;;18.59;40.33;98001.64;105000;1260;98070;-79
2023/03/23 11:04:31;;;;;;;7.40;3.80;;;;;;;18.48;41.24;98007.09;105287;1256;111118;-77
2023/03/23 11:07:02;;;;;;;7.90;3.20;;;;;;;18.40;42.02;98010.27;105070;1254;97906;-70
2023/03/23 11:09:51;;;;;;;9.40;3.50;;;;;;;18.30;41.30;98010.02;105162;1256;108280;-71
2023/03/23 11:12:18;;;;;;;6.60;3.10;;;;;;;18.18;41.92;98012.53;105255;1256;99209;-81
2023/03/23 11:14:45;;;;;;;5.90;3.50;;;;;;;18.14;42.42;98005.83;105272;1253;97914;-76
2023/03/23 11:17:24;;;;;;;9.00;3.30;;;;;;;18.10;43.09;98010.59;105260;1253;97917;-79
2023/03/23 11:19:51;;;;;;;6.30;3.30;;;;;;;18.01;43.35;98007.42;104813;1260;98213;-80
2023/03/23 11:22:36;;;;;;;5.10;2.90;;;;;;;17.97;43.14;98005.16;104717;1261;99378;-81
2023/03/23 11:25:05;;;;;;;5.30;3.00;;;;;;;17.93;43.20;98001.40;104891;1260;97902;-80
2023/03/23 11:27:33;;;;;;;5.50;2.90;;;;;;;17.90;43.92;98003.50;104970;1270;97964;-77
2023/03/23 11:30:35;;;;;;;6.00;3.10;;;;;;;17.87;44.01;98004.02;104901;1256;111098;-77
2023/03/23 11:33:02;;;;;;;6.40;3.30;;;;;;;17.86;43.39;98006.70;104737;1256;99364;-80